createdAt,value
2023-08-17T00:02:15.041Z,13.32
2023-08-17T00:04:42.441Z,13.02
2023-08-17T00:07:09.582Z,14.77
2023-08-17T00:09:36.768Z,22.50
2023-08-17T00:12:04.209Z,19.38
2023-08-17T00:14:32.267Z,17.42
2023-08-17T00:16:59.569Z,14.68
2023-08-17T00:19:26.682Z,15.10
2023-08-17T00:21:54.229Z,13.57
2023-08-17T00:24:21.387Z,13.65
2023-08-17T00:26:48.532Z,13.55
2023-08-17T00:29:16.482Z,13.40
2023-08-17T00:31:43.674Z,14.63
2023-08-17T00:34:10.805Z,12.77
2023-08-17T00:36:38.002Z,13.27
2023-08-17T00:39:05.466Z,12.70
2023-08-17T00:41:32.964Z,13.68
2023-08-17T00:44:01.489Z,13.35
2023-08-17T00:46:29.393Z,13.30
2023-08-17T00:48:58.395Z,13.38
2023-08-17T00:51:26.652Z,13.57
2023-08-17T00:53:57.478Z,13.80
2023-08-17T00:56:25.803Z,13.10
2023-08-17T00:58:53.299Z,13.93
2023-08-17T01:01:22.099Z,12.63
2023-08-17T01:03:49.245Z,12.77
2023-08-17T01:06:17.315Z,13.13
2023-08-17T01:08:45.622Z,13.77
2023-08-17T01:11:18.883Z,13.50
2023-08-17T01:13:51.253Z,13.48
2023-08-17T01:16:32.703Z,12.68
2023-08-17T01:19:01.774Z,12.15
2023-08-17T01:21:44.306Z,14.10
2023-08-17T01:24:13.538Z,12.80
2023-08-17T01:26:41.309Z,13.65
2023-08-17T01:29:09.120Z,13.30
2023-08-17T01:31:56.510Z,13.27
2023-08-17T01:36:57.498Z,12.15
2023-08-17T01:39:31.868Z,13.02
2023-08-17T01:42:01.687Z,12.60
2023-08-17T01:44:31.875Z,12.70
2023-08-17T01:47:02.104Z,13.27
2023-08-17T01:49:29.181Z,13.05
2023-08-17T01:51:56.560Z,13.00
2023-08-17T01:54:24.098Z,13.30
2023-08-17T01:56:51.739Z,13.32
2023-08-17T01:59:19.405Z,13.15
2023-08-17T02:01:47.461Z,14.57
2023-08-17T02:04:14.562Z,12.43
2023-08-17T02:06:42.147Z,12.98
2023-08-17T02:09:09.212Z,13.60
2023-08-17T02:11:37.535Z,13.75
2023-08-17T02:14:04.743Z,12.85
2023-08-17T02:16:31.900Z,12.93
2023-08-17T02:18:59.079Z,13.02
2023-08-17T02:21:26.191Z,13.77
2023-08-17T02:23:53.367Z,14.30
2023-08-17T02:26:23.159Z,14.27
2023-08-17T02:28:50.271Z,13.32
2023-08-17T02:31:17.491Z,13.38
2023-08-17T02:33:44.928Z,14.63
2023-08-17T02:36:12.095Z,14.02
2023-08-17T02:38:39.189Z,13.43
2023-08-17T02:41:06.316Z,13.73
2023-08-17T02:43:33.481Z,14.50
2023-08-17T02:46:01.015Z,13.82
2023-08-17T02:48:29.103Z,13.95
2023-08-17T02:50:57.604Z,13.30
2023-08-17T02:53:24.747Z,13.32
2023-08-17T02:55:51.907Z,14.40
2023-08-17T02:58:19.183Z,14.63
2023-08-17T03:00:46.253Z,14.00
2023-08-17T03:03:14.891Z,13.68
2023-08-17T03:05:42.019Z,15.02
2023-08-17T03:08:09.141Z,14.05
2023-08-17T03:10:38.644Z,14.20
2023-08-17T03:13:05.740Z,15.15
2023-08-17T03:15:32.962Z,14.20
2023-08-17T03:18:00.207Z,15.13
2023-08-17T03:20:27.629Z,14.88
2023-08-17T03:22:54.730Z,13.95
2023-08-17T03:25:22.183Z,14.75
2023-08-17T03:27:49.460Z,14.10
2023-08-17T03:30:16.656Z,13.65
2023-08-17T03:32:43.902Z,13.98
2023-08-17T03:35:11.100Z,14.60
2023-08-17T03:37:38.849Z,13.40
2023-08-17T03:40:06.987Z,12.70
2023-08-17T03:42:34.253Z,13.40
2023-08-17T03:45:03.341Z,14.55
2023-08-17T03:47:30.770Z,12.95
2023-08-17T03:49:58.169Z,12.43
2023-08-17T03:52:25.336Z,13.88
2023-08-17T03:54:52.658Z,14.90
2023-08-17T03:57:19.802Z,13.88
2023-08-17T03:59:47.017Z,13.13
2023-08-17T04:02:14.234Z,13.20
2023-08-17T04:04:41.578Z,13.25
2023-08-17T04:07:08.799Z,12.93
2023-08-17T04:09:36.172Z,13.10
2023-08-17T04:12:05.542Z,12.85
2023-08-17T04:14:34.720Z,13.43
2023-08-17T04:17:01.872Z,12.98
2023-08-17T04:19:29.184Z,13.60
2023-08-17T04:21:56.310Z,13.60
2023-08-17T04:24:23.497Z,14.77
2023-08-17T04:26:51.043Z,14.88
2023-08-17T04:29:18.239Z,14.05
2023-08-17T04:31:45.461Z,15.20
2023-08-17T04:34:12.900Z,15.95
2023-08-17T04:36:40.128Z,15.93
2023-08-17T04:39:07.647Z,15.00
2023-08-17T04:41:34.733Z,15.75
2023-08-17T04:44:05.390Z,16.13
2023-08-17T04:46:32.578Z,15.18
2023-08-17T04:48:59.634Z,16.02
2023-08-17T04:51:27.693Z,15.00
2023-08-17T04:53:55.903Z,16.30
2023-08-17T04:56:23.124Z,16.55
2023-08-17T04:58:50.343Z,16.13
2023-08-17T05:01:19.621Z,15.93
2023-08-17T05:03:47.682Z,15.45
2023-08-17T05:06:15.336Z,14.68
2023-08-17T05:08:42.842Z,13.77
2023-08-17T05:11:10.378Z,14.77
2023-08-17T05:13:37.512Z,15.65
2023-08-17T05:16:07.102Z,14.23
2023-08-17T05:18:35.560Z,13.65
2023-08-17T05:21:02.923Z,14.98
2023-08-17T05:23:32.798Z,14.20
2023-08-17T05:26:00.537Z,14.63
2023-08-17T05:28:27.790Z,14.70
2023-08-17T05:30:56.405Z,15.00
2023-08-17T05:33:23.580Z,14.82
2023-08-17T05:35:56.050Z,15.73
2023-08-17T05:38:24.027Z,16.40
2023-08-17T05:40:59.558Z,15.75
2023-08-17T05:43:27.719Z,14.65
2023-08-17T05:45:55.062Z,15.57
2023-08-17T05:48:23.871Z,15.48
2023-08-17T05:50:51.137Z,15.00
2023-08-17T05:53:18.572Z,14.63
2023-08-17T05:55:45.692Z,13.60
2023-08-17T05:58:13.685Z,14.45
2023-08-17T06:00:40.794Z,14.68
2023-08-17T06:03:08.261Z,15.10
2023-08-17T06:05:36.049Z,15.40
2023-08-17T06:08:03.847Z,13.77
2023-08-17T06:10:31.045Z,13.73
2023-08-17T06:12:59.440Z,13.93
2023-08-17T06:15:26.650Z,14.32
2023-08-17T06:17:54.236Z,13.60
2023-08-17T06:20:22.381Z,14.63
2023-08-17T06:22:51.102Z,13.32
2023-08-17T06:25:18.231Z,13.27
2023-08-17T06:27:46.145Z,12.55
2023-08-17T06:30:13.836Z,14.52
2023-08-17T06:32:41.354Z,15.20
2023-08-17T06:35:09.306Z,15.30
2023-08-17T06:37:36.825Z,15.98
2023-08-17T06:40:06.684Z,15.13
2023-08-17T06:42:34.803Z,14.63
2023-08-17T06:45:02.029Z,15.52
2023-08-17T06:47:29.429Z,13.80
2023-08-17T06:49:59.013Z,15.07
2023-08-17T06:52:26.148Z,15.68
2023-08-17T06:54:53.301Z,15.23
2023-08-17T06:57:22.986Z,14.65
2023-08-17T06:59:50.137Z,15.30
2023-08-17T07:02:19.212Z,15.13
2023-08-17T07:04:46.644Z,15.73
2023-08-17T07:07:15.508Z,15.02
2023-08-17T07:09:43.750Z,14.48
2023-08-17T07:12:10.963Z,15.18
2023-08-17T07:14:38.718Z,15.13
2023-08-17T07:17:05.944Z,14.35
2023-08-17T07:19:57.793Z,15.38
2023-08-17T07:22:20.940Z,14.10
2023-08-17T07:24:48.009Z,13.23
2023-08-17T07:27:15.433Z,13.07
2023-08-17T07:29:42.618Z,14.48
2023-08-17T07:32:10.538Z,12.82
2023-08-17T07:34:38.025Z,13.55
2023-08-17T07:37:07.268Z,13.30
2023-08-17T07:39:34.721Z,14.02
2023-08-17T07:42:02.142Z,13.30
2023-08-17T07:44:30.468Z,11.77
2023-08-17T07:46:57.818Z,12.30
2023-08-17T07:49:32.201Z,12.00
2023-08-17T07:52:00.967Z,11.60
2023-08-17T07:54:28.182Z,11.52
2023-08-17T07:56:55.500Z,11.35
2023-08-17T07:59:22.635Z,12.18
2023-08-17T08:01:49.939Z,10.32
2023-08-17T08:04:17.082Z,10.43
2023-08-17T08:06:44.646Z,10.23
2023-08-17T08:09:11.841Z,12.13
2023-08-17T08:11:39.397Z,10.50
2023-08-17T08:14:06.771Z,9.75
2023-08-17T08:16:33.885Z,10.07
2023-08-17T08:19:01.096Z,11.07
2023-08-17T08:21:29.258Z,10.85
2023-08-17T08:23:56.462Z,10.80
2023-08-17T08:26:23.674Z,10.15
2023-08-17T08:28:50.851Z,10.15
2023-08-17T08:31:18.089Z,10.13
2023-08-17T08:33:45.444Z,10.80
2023-08-17T08:36:12.540Z,11.13
2023-08-17T08:38:39.643Z,9.77
2023-08-17T08:41:09.906Z,10.95
2023-08-17T08:43:37.408Z,10.45
2023-08-17T08:46:05.572Z,10.77
2023-08-17T08:48:36.810Z,10.30
2023-08-17T08:51:05.737Z,10.18
2023-08-17T08:53:40.725Z,11.02
2023-08-17T08:56:13.862Z,10.57
2023-08-17T08:58:43.227Z,10.32
2023-08-17T09:01:12.283Z,10.48
2023-08-17T09:03:40.201Z,9.55
2023-08-17T09:06:08.076Z,9.95
2023-08-17T09:08:35.840Z,10.23
2023-08-17T09:11:02.946Z,8.43
2023-08-17T09:13:30.246Z,9.15
2023-08-17T09:16:07.273Z,9.07
2023-08-17T09:18:38.670Z,9.98
2023-08-17T09:21:06.621Z,9.90
2023-08-17T09:23:37.037Z,9.35
2023-08-17T09:26:10.391Z,9.13
2023-08-17T09:28:40.578Z,9.18
2023-08-17T09:31:07.838Z,9.40
2023-08-17T09:33:35.531Z,9.27
2023-08-17T09:36:02.812Z,9.75
2023-08-17T09:38:30.051Z,9.77
2023-08-17T09:40:59.068Z,9.32
2023-08-17T09:43:30.459Z,9.68
2023-08-17T09:45:57.788Z,9.55
2023-08-17T09:48:26.839Z,8.95
2023-08-17T09:50:57.994Z,8.98
2023-08-17T09:53:26.277Z,9.45
2023-08-17T09:55:56.334Z,9.38
2023-08-17T09:58:24.019Z,10.98
2023-08-17T10:00:52.582Z,8.20
2023-08-17T10:03:21.313Z,8.68
2023-08-17T10:06:03.213Z,8.70
2023-08-17T10:08:32.974Z,9.07
2023-08-17T10:11:04.455Z,11.00
2023-08-17T10:13:57.690Z,9.85
2023-08-17T10:16:35.014Z,9.45
2023-08-17T10:19:05.379Z,9.13
2023-08-17T10:21:45.382Z,8.90
2023-08-17T10:24:13.968Z,9.88
2023-08-17T10:26:41.994Z,9.48
2023-08-17T10:29:15.365Z,9.30
2023-08-17T10:31:48.276Z,9.18
2023-08-17T10:34:17.100Z,8.82
2023-08-17T10:36:45.464Z,9.18
2023-08-17T10:39:27.052Z,8.60
2023-08-17T10:41:58.155Z,8.80
2023-08-17T10:44:50.078Z,8.95
2023-08-17T10:47:37.860Z,8.95
2023-08-17T10:50:08.722Z,8.77
2023-08-17T10:52:39.264Z,8.75
2023-08-17T10:55:09.023Z,8.85
2023-08-17T10:57:39.228Z,9.02
2023-08-17T11:00:12.198Z,9.00
2023-08-17T11:02:40.373Z,9.35
2023-08-17T11:05:08.614Z,8.85
2023-08-17T11:07:45.849Z,9.43
2023-08-17T11:10:29.981Z,9.30
2023-08-17T11:13:01.865Z,10.00
2023-08-17T11:15:49.691Z,9.77
2023-08-17T11:18:17.550Z,9.30
2023-08-17T11:20:45.262Z,9.02
2023-08-17T11:23:13.032Z,9.05
2023-08-17T11:25:40.746Z,8.55
2023-08-17T11:28:10.039Z,8.93
2023-08-17T11:30:40.562Z,8.93
2023-08-17T11:33:09.979Z,8.90
2023-08-17T11:35:38.433Z,9.13
2023-08-17T11:38:08.819Z,8.30
2023-08-17T11:40:37.706Z,9.25
2023-08-17T11:43:05.268Z,8.77
2023-08-17T11:45:33.656Z,9.02
2023-08-17T11:48:01.408Z,8.65
2023-08-17T11:50:28.944Z,8.65
2023-08-17T11:52:56.129Z,9.30
2023-08-17T11:55:24.603Z,8.27
2023-08-17T11:57:51.824Z,8.27
2023-08-17T12:00:21.736Z,8.50
2023-08-17T12:02:53.038Z,8.45
2023-08-17T12:05:25.164Z,9.55
2023-08-17T12:07:55.491Z,9.07
2023-08-17T12:10:26.046Z,7.85
2023-08-17T12:12:53.656Z,8.63
2023-08-17T12:15:21.137Z,7.80
2023-08-17T12:17:50.686Z,8.60
2023-08-17T12:20:19.399Z,8.43
2023-08-17T12:22:48.430Z,8.20
2023-08-17T12:25:16.186Z,8.73
2023-08-17T12:27:43.755Z,8.70
2023-08-17T12:30:33.206Z,7.85
2023-08-17T12:33:01.079Z,8.50
2023-08-17T12:35:28.317Z,8.95
2023-08-17T12:37:56.813Z,8.20
2023-08-17T12:40:24.465Z,8.70
2023-08-17T12:42:52.143Z,7.68
2023-08-17T12:45:19.450Z,10.40
2023-08-17T12:47:46.951Z,8.85
2023-08-17T12:50:14.169Z,9.10
2023-08-17T12:52:47.240Z,8.68
2023-08-17T12:55:15.134Z,8.68
2023-08-17T12:57:42.636Z,8.73
2023-08-17T13:00:10.769Z,8.82
2023-08-17T13:02:37.946Z,8.77
2023-08-17T13:05:05.758Z,8.65
2023-08-17T13:07:32.871Z,8.80
2023-08-17T13:10:00.421Z,8.88
2023-08-17T13:12:28.218Z,9.27
2023-08-17T13:14:55.942Z,9.30
2023-08-17T13:17:23.400Z,9.27
2023-08-17T13:19:51.180Z,9.25
2023-08-17T13:22:18.571Z,9.75
2023-08-17T13:24:45.934Z,8.13
2023-08-17T13:27:13.537Z,8.13
2023-08-17T13:29:41.460Z,8.15
2023-08-17T13:32:08.530Z,9.90
2023-08-17T13:34:36.153Z,8.50
2023-08-17T13:37:04.391Z,9.18
2023-08-17T13:39:32.082Z,8.52
2023-08-17T13:41:59.799Z,8.88
2023-08-17T13:44:27.576Z,8.55
2023-08-17T13:46:54.657Z,9.50
2023-08-17T13:49:22.209Z,10.13
2023-08-17T13:51:49.274Z,9.40
2023-08-17T13:54:16.738Z,9.85
2023-08-17T13:56:44.113Z,8.68
2023-08-17T13:59:11.742Z,9.57
2023-08-17T14:01:38.907Z,9.27
2023-08-17T14:04:09.619Z,9.85
2023-08-17T14:06:36.767Z,9.15
2023-08-17T14:09:04.509Z,9.25
2023-08-17T14:11:31.862Z,9.73
2023-08-17T14:13:59.053Z,10.52
2023-08-17T14:16:26.474Z,9.07
2023-08-17T14:18:53.681Z,9.43
2023-08-17T14:21:20.778Z,9.20
2023-08-17T14:23:48.213Z,8.77
2023-08-17T14:26:15.397Z,9.40
2023-08-17T14:28:44.936Z,9.98
2023-08-17T14:31:17.592Z,9.48
2023-08-17T14:33:48.991Z,10.07
2023-08-17T14:36:20.816Z,9.77
2023-08-17T14:38:49.311Z,9.95
2023-08-17T14:41:17.105Z,9.13
2023-08-17T14:43:44.210Z,10.27
2023-08-17T14:48:41.473Z,9.68
2023-08-17T14:51:08.693Z,10.70
2023-08-17T14:53:39.148Z,10.07
2023-08-17T14:56:06.796Z,9.98
2023-08-17T14:58:34.249Z,10.20
2023-08-17T15:01:02.310Z,10.07
2023-08-17T15:03:29.747Z,10.95
2023-08-17T15:05:56.963Z,10.55
2023-08-17T15:08:24.328Z,10.25
2023-08-17T15:10:54.906Z,12.45
2023-08-17T15:13:24.144Z,10.90
2023-08-17T15:15:51.937Z,10.05
2023-08-17T15:18:19.217Z,9.13
2023-08-17T15:20:46.601Z,9.88
2023-08-17T15:23:18.849Z,9.40
2023-08-17T15:25:46.867Z,9.30
2023-08-17T15:28:13.968Z,8.90
2023-08-17T15:30:41.134Z,10.68
2023-08-17T15:33:09.131Z,9.88
2023-08-17T15:35:36.411Z,10.00
2023-08-17T15:38:03.683Z,10.27
2023-08-17T15:40:30.906Z,10.15
2023-08-17T15:42:58.096Z,9.27
2023-08-17T15:45:25.375Z,9.15
2023-08-17T15:47:52.515Z,9.23
2023-08-17T15:50:19.961Z,19.90
2023-08-17T15:52:47.091Z,9.52
2023-08-17T15:55:14.571Z,9.43
2023-08-17T15:57:41.693Z,8.48
2023-08-17T16:00:09.591Z,9.15
2023-08-17T16:02:36.734Z,9.75
2023-08-17T16:05:04.111Z,8.85
2023-08-17T16:07:31.330Z,8.13
2023-08-17T16:09:58.476Z,9.15
2023-08-17T16:12:25.684Z,9.45
2023-08-17T16:14:52.761Z,10.63
2023-08-17T16:17:21.661Z,9.68
2023-08-17T16:19:48.770Z,8.43
2023-08-17T16:22:17.611Z,9.77
2023-08-17T16:24:45.124Z,10.63
2023-08-17T16:27:12.821Z,11.95
2023-08-17T16:29:39.925Z,11.13
2023-08-17T16:32:09.930Z,11.32
2023-08-17T16:34:37.716Z,11.57
2023-08-17T16:37:05.319Z,10.85
2023-08-17T16:39:38.311Z,10.85
2023-08-17T16:42:06.828Z,11.63
2023-08-17T16:44:33.881Z,13.02
2023-08-17T16:47:01.782Z,11.25
2023-08-17T16:49:30.756Z,11.85
2023-08-17T16:52:00.508Z,11.77
2023-08-17T16:54:28.096Z,12.27
2023-08-17T16:56:55.499Z,11.57
2023-08-17T16:59:22.674Z,11.27
2023-08-17T17:01:49.886Z,11.05
2023-08-17T17:04:17.996Z,12.55
2023-08-17T17:06:46.088Z,11.82
2023-08-17T17:09:13.224Z,11.77
2023-08-17T17:11:40.458Z,11.13
2023-08-17T17:14:07.956Z,13.00
2023-08-17T17:16:35.722Z,11.40
2023-08-17T17:19:03.047Z,13.32
2023-08-17T17:21:30.329Z,12.68
2023-08-17T17:23:57.573Z,11.75
2023-08-17T17:26:26.329Z,12.25
2023-08-17T17:28:53.574Z,11.75
2023-08-17T17:31:20.743Z,11.75
2023-08-17T17:33:48.317Z,12.20
2023-08-17T17:36:15.443Z,11.50
2023-08-17T17:38:42.677Z,11.73
2023-08-17T17:41:09.842Z,11.07
2023-08-17T17:43:36.928Z,11.18
2023-08-17T17:46:04.595Z,11.85
2023-08-17T17:48:33.437Z,12.18
2023-08-17T17:51:00.701Z,12.45
2023-08-17T17:53:27.847Z,12.95
2023-08-17T17:55:55.050Z,13.52
2023-08-17T17:58:22.214Z,13.95
2023-08-17T18:00:49.384Z,15.27
2023-08-17T18:03:18.061Z,14.90
2023-08-17T18:05:46.931Z,13.50
2023-08-17T18:08:14.390Z,14.52
2023-08-17T18:10:42.556Z,12.65
2023-08-17T18:13:10.349Z,13.27
2023-08-17T18:15:39.391Z,13.35
2023-08-17T18:18:07.865Z,12.75
2023-08-17T18:20:35.218Z,11.55
2023-08-17T18:23:02.530Z,11.93
2023-08-17T18:25:33.378Z,11.73
2023-08-17T18:28:00.568Z,11.70
2023-08-17T18:30:27.815Z,11.50
2023-08-17T18:32:55.008Z,12.77
2023-08-17T18:35:22.387Z,13.23
2023-08-17T18:37:49.508Z,11.68
2023-08-17T18:40:21.005Z,11.45
2023-08-17T18:42:50.237Z,11.63
2023-08-17T18:45:20.671Z,10.82
2023-08-17T18:47:48.169Z,10.57
2023-08-17T18:50:16.208Z,11.20
2023-08-17T18:52:44.549Z,10.25
2023-08-17T18:55:14.474Z,9.60
2023-08-17T18:57:42.317Z,10.07
2023-08-17T19:00:12.439Z,10.27
2023-08-17T19:02:40.854Z,10.38
2023-08-17T19:05:09.559Z,9.55
2023-08-17T19:07:36.820Z,10.00
2023-08-17T19:10:04.215Z,9.73
2023-08-17T19:12:31.505Z,9.77
2023-08-17T19:14:58.567Z,9.48
2023-08-17T19:17:26.947Z,9.52
2023-08-17T19:19:54.340Z,8.95
2023-08-17T19:22:22.157Z,9.35
2023-08-17T19:24:49.883Z,9.57
2023-08-17T19:27:17.263Z,9.85
2023-08-17T19:29:44.428Z,10.38
2023-08-17T19:32:12.028Z,10.25
2023-08-17T19:34:39.143Z,9.80
2023-08-17T19:37:06.759Z,11.25
2023-08-17T19:39:34.070Z,10.27
2023-08-17T19:42:03.805Z,9.27
2023-08-17T19:44:31.142Z,10.07
2023-08-17T19:46:59.056Z,10.50
2023-08-17T19:49:26.540Z,9.55
2023-08-17T19:51:53.999Z,10.18
2023-08-17T19:54:24.837Z,9.50
2023-08-17T19:56:52.098Z,10.05
2023-08-17T19:59:19.276Z,10.43
2023-08-17T20:01:47.848Z,11.40
2023-08-17T20:04:17.441Z,10.50
2023-08-17T20:06:47.104Z,10.30
2023-08-17T20:09:15.370Z,10.70
2023-08-17T20:11:42.575Z,10.70
2023-08-17T20:14:10.479Z,10.80
2023-08-17T20:16:37.585Z,9.50
2023-08-17T20:19:21.030Z,10.77
2023-08-17T20:21:48.977Z,10.60
2023-08-17T20:24:16.707Z,11.68
2023-08-17T20:26:44.159Z,11.48
2023-08-17T20:29:12.900Z,10.68
2023-08-17T20:31:40.569Z,11.30
2023-08-17T20:34:07.786Z,10.60
2023-08-17T20:36:35.406Z,11.38
2023-08-17T20:39:10.571Z,10.23
2023-08-17T20:41:38.311Z,10.45
2023-08-17T20:44:05.773Z,11.52
2023-08-17T20:46:32.998Z,11.05
2023-08-17T20:49:00.613Z,11.05
2023-08-17T20:51:28.098Z,11.50
2023-08-17T20:53:55.442Z,11.50
2023-08-17T20:56:23.056Z,10.95
2023-08-17T20:58:50.355Z,11.02
2023-08-17T21:01:19.318Z,11.18
2023-08-17T21:03:50.145Z,11.15
2023-08-17T21:06:17.318Z,11.60
2023-08-17T21:08:44.784Z,11.75
2023-08-17T21:11:12.594Z,11.88
2023-08-17T21:13:39.796Z,10.73
2023-08-17T21:16:08.812Z,11.45
2023-08-17T21:18:36.447Z,11.43
2023-08-17T21:21:03.976Z,12.13
2023-08-17T21:23:32.162Z,10.93
2023-08-17T21:26:02.648Z,11.77
2023-08-17T21:28:29.838Z,11.85
2023-08-17T21:31:04.393Z,11.63
2023-08-17T21:33:32.224Z,12.38
2023-08-17T21:36:00.388Z,12.15
2023-08-17T21:38:28.255Z,11.65
2023-08-17T21:40:59.659Z,11.48
2023-08-17T21:43:29.825Z,11.13
2023-08-17T21:46:01.246Z,11.73
2023-08-17T21:48:29.110Z,11.30
2023-08-17T21:50:57.621Z,12.30
2023-08-17T21:53:24.875Z,11.75
2023-08-17T21:55:52.974Z,11.73
2023-08-17T21:58:21.014Z,12.23
2023-08-17T22:00:49.123Z,11.93
2023-08-17T22:03:17.410Z,12.27
2023-08-17T22:05:49.009Z,12.07
2023-08-17T22:08:16.528Z,12.52
2023-08-17T22:10:44.532Z,11.88
2023-08-17T22:13:12.305Z,12.80
2023-08-17T22:15:40.159Z,12.60
2023-08-17T22:18:07.526Z,11.65
2023-08-17T22:20:36.278Z,12.57
2023-08-17T22:23:03.665Z,12.98
2023-08-17T22:25:30.851Z,11.90
2023-08-17T22:27:58.081Z,13.18
2023-08-17T22:30:25.708Z,12.02
2023-08-17T22:32:52.955Z,12.43
2023-08-17T22:35:20.320Z,13.05
2023-08-17T22:37:47.434Z,12.90
2023-08-17T22:40:14.627Z,12.40
2023-08-17T22:42:42.086Z,13.15
2023-08-17T22:45:09.672Z,12.75
2023-08-17T22:47:36.938Z,13.23
2023-08-17T22:50:04.378Z,12.73
2023-08-17T22:52:31.488Z,13.70
2023-08-17T22:55:01.679Z,12.88
2023-08-17T22:57:29.423Z,13.10
2023-08-17T22:59:57.330Z,12.65
2023-08-17T23:02:26.387Z,13.27
2023-08-17T23:04:53.920Z,14.50
2023-08-17T23:07:21.039Z,13.35
2023-08-17T23:09:48.672Z,13.27
2023-08-17T23:12:15.717Z,13.55
2023-08-17T23:14:43.030Z,13.32
2023-08-17T23:17:11.871Z,12.98
2023-08-17T23:19:39.285Z,13.73
2023-08-17T23:22:06.417Z,13.40
2023-08-17T23:24:37.707Z,12.90
2023-08-17T23:27:07.205Z,13.20
2023-08-17T23:29:35.221Z,12.48
2023-08-17T23:32:16.437Z,13.57
2023-08-17T23:34:50.325Z,13.23
2023-08-17T23:37:20.582Z,13.45
2023-08-17T23:39:47.684Z,13.85
2023-08-17T23:42:14.799Z,13.25
2023-08-17T23:44:42.530Z,13.45
2023-08-17T23:47:11.085Z,13.10
2023-08-17T23:49:39.832Z,13.73
2023-08-17T23:52:08.139Z,12.73
2023-08-17T23:54:35.270Z,13.45
2023-08-17T23:57:02.909Z,14.40
2023-08-17T23:59:30.185Z,14.18
